Time;durP1;ratioP1;P1;durP2;ratioP2;P2;SDS_P1;SDS_P2;PMS_P1;PMS_P2;Temp;Humidity;BMP_temperature;BMP_pressure;BME280_temperature;BME280_humidity;BME280_pressure;Samples;Min_cycle;Max_cycle;Signal;HPM_P1;HPM_P2
2023/01/05 00:01:45;;;;;;;0.45;0.20;;;;;;;10.85;70.34;97044.91;6077464;23;20196;-79
2023/01/05 00:04:13;;;;;;;0.25;0.10;;;;;;;10.86;70.18;97044.69;6076701;23;20026;-80
2023/01/05 00:06:42;;;;;;;0.10;0.10;;;;;;;10.88;70.22;97061.00;6076203;23;20026;-79
2023/01/05 00:09:13;;;;;;;0.57;0.10;;;;;;;10.90;70.14;97053.00;6075990;23;20479;-78
2023/01/05 00:22:49;;;;;;;0.15;0.10;;;;;;;10.93;70.04;97047.44;6080834;23;20033;-80
2023/01/05 00:25:19;;;;;;;0.52;0.10;;;;;;;10.94;70.17;97049.06;6082215;23;20026;-79
2023/01/05 00:27:50;;;;;;;0.05;0.03;;;;;;;10.96;70.32;97044.50;6081094;23;20361;-80
2023/01/05 00:30:21;;;;;;;0.22;0.10;;;;;;;10.97;70.80;97045.31;6080761;23;20023;-79
2023/01/05 00:32:49;;;;;;;0.20;0.03;;;;;;;10.99;70.94;97035.50;6080960;23;20074;-79
2023/01/05 00:35:17;;;;;;;1.05;0.25;;;;;;;10.98;71.29;97039.91;6079624;23;20034;-84
2023/01/05 00:37:45;;;;;;;0.95;0.10;;;;;;;10.99;71.31;97031.09;6081024;23;20109;-84
2023/01/05 00:40:14;;;;;;;0.22;0.10;;;;;;;11.00;71.26;97035.34;6079933;23;20483;-78
2023/01/05 00:42:42;;;;;;;0.10;0.10;;;;;;;11.00;71.31;97024.91;6079801;23;20127;-78
2023/01/05 00:45:11;;;;;;;0.30;0.10;;;;;;;10.99;71.63;96999.75;6078844;23;20049;-79
2023/01/05 00:47:41;;;;;;;0.10;0.10;;;;;;;11.01;71.38;97000.41;6078391;23;20023;-81
2023/01/05 00:50:12;;;;;;;0.75;0.10;;;;;;;11.02;71.13;97002.03;6077536;23;20102;-79
2023/01/05 00:52:40;;;;;;;0.10;0.10;;;;;;;11.03;71.04;96990.59;6081025;23;20015;-82
2023/01/05 00:55:08;;;;;;;0.45;0.20;;;;;;;11.03;70.98;97008.06;6084663;23;20022;-84
2023/01/05 00:57:36;;;;;;;0.60;0.45;;;;;;;11.03;71.27;97011.47;6083603;23;20029;-81
2023/01/05 01:00:05;;;;;;;0.20;0.10;;;;;;;11.05;71.40;97022.56;6083744;23;20061;-82
2023/01/05 01:02:33;;;;;;;0.10;0.10;;;;;;;11.05;71.56;97014.72;6084477;23;20023;-81
2023/01/05 01:05:02;;;;;;;0.00;0.00;;;;;;;11.04;71.87;97007.91;6084727;23;20023;-80
2023/01/05 01:07:29;;;;;;;0.50;0.17;;;;;;;11.05;71.68;97019.16;6083938;23;20071;-83
2023/01/05 01:09:57;;;;;;;0.08;0.00;;;;;;;11.04;71.42;97005.28;6082635;23;20063;-82
2023/01/05 01:12:25;;;;;;;0.00;0.00;;;;;;;11.06;71.67;97011.16;6082041;23;20067;-80
2023/01/05 01:14:53;;;;;;;0.10;0.00;;;;;;;11.07;71.65;97014.56;6081606;23;20019;-80
2023/01/05 01:17:20;;;;;;;0.17;0.10;;;;;;;11.07;71.53;97007.53;6082551;23;20018;-82
2023/01/05 01:19:48;;;;;;;0.17;0.17;;;;;;;11.07;71.72;97017.97;6083966;23;20038;-84
2023/01/05 01:22:17;;;;;;;1.95;0.10;;;;;;;11.07;71.97;97009.34;6084497;23;20030;-83
2023/01/05 01:24:44;;;;;;;1.35;0.10;;;;;;;11.07;72.12;97007.53;6084046;23;20102;-87
2023/01/05 01:27:12;;;;;;;3.72;0.55;;;;;;;11.08;71.88;97005.75;6083625;23;20086;-84
2023/01/05 01:29:40;;;;;;;0.10;0.10;;;;;;;11.07;71.85;97012.75;6082487;23;20046;-80
2023/01/05 01:32:07;;;;;;;0.43;0.38;;;;;;;11.07;71.75;97011.97;6081427;23;20105;-83
2023/01/05 01:34:35;;;;;;;0.20;0.20;;;;;;;11.06;71.88;97005.09;6080800;23;20494;-80
2023/01/05 01:37:03;;;;;;;0.38;0.20;;;;;;;11.07;71.85;97017.19;6080776;23;20407;-83
2023/01/05 01:39:32;;;;;;;0.15;0.13;;;;;;;11.06;72.01;97000.72;6079636;23;20033;-81
2023/01/05 01:42:00;;;;;;;0.10;0.10;;;;;;;11.05;71.58;96991.25;6079166;23;20481;-81
2023/01/05 01:44:50;;;;;;;0.10;0.10;;;;;;;11.05;71.85;96993.03;6078606;23;20079;-79
2023/01/05 01:47:36;;;;;;;0.03;0.03;;;;;;;11.04;71.81;97001.84;6078815;23;20087;-79
2023/01/05 01:50:10;;;;;;;0.03;0.03;;;;;;;11.05;71.82;96990.44;6079062;23;20055;-79
2023/01/05 01:52:38;;;;;;;0.30;0.08;;;;;;;11.06;72.09;96986.81;6077589;23;20337;-82
2023/01/05 01:55:09;;;;;;;1.17;0.00;;;;;;;11.06;72.25;96990.28;6077092;23;20328;-79
2023/01/05 01:57:37;;;;;;;0.00;0.00;;;;;;;11.07;71.98;96986.66;6076866;23;20033;-80
2023/01/05 02:00:07;;;;;;;0.57;0.00;;;;;;;11.07;71.97;96976.22;6075957;23;20027;-78
2023/01/05 02:02:35;;;;;;;0.10;0.10;;;;;;;11.08;71.89;96959.53;6075944;23;20030;-78
2023/01/05 02:05:06;;;;;;;0.10;0.10;;;;;;;11.07;71.81;96978.03;6074642;23;20027;-80
2023/01/05 02:07:37;;;;;;;0.00;0.00;;;;;;;11.07;71.79;96970.19;6075629;23;20050;-79
2023/01/05 02:10:05;;;;;;;0.63;0.10;;;;;;;11.08;71.77;96962.16;6074194;23;20022;-79
2023/01/05 02:12:48;;;;;;;1.65;0.10;;;;;;;11.08;72.08;96956.94;6071200;23;20425;-80
2023/01/05 02:15:24;;;;;;;0.00;0.00;;;;;;;11.09;72.15;96960.38;6067853;23;20027;-80
2023/01/05 02:18:06;;;;;;;0.08;0.00;;;;;;;11.10;72.38;96960.19;6066344;23;20098;-80
2023/01/05 02:20:56;;;;;;;0.47;0.10;;;;;;;11.11;72.09;96961.81;6066316;23;20118;-80
2023/01/05 02:23:57;;;;;;;0.00;0.00;;;;;;;11.10;72.08;96949.75;6070273;23;20045;-80
2023/01/05 02:27:02;;;;;;;0.08;0.00;;;;;;;11.11;72.29;96956.59;6066569;23;20022;-80
2023/01/05 02:29:51;;;;;;;0.15;0.10;;;;;;;11.11;72.00;96967.03;6065787;23;20108;-80
2023/01/05 02:32:22;;;;;;;0.32;0.10;;;;;;;11.12;71.98;96973.06;6067050;23;20351;-80
2023/01/05 02:35:03;;;;;;;0.00;0.00;;;;;;;11.13;72.12;96974.72;6068161;23;20101;-80
2023/01/05 02:37:36;;;;;;;0.05;0.03;;;;;;;11.11;72.04;96974.88;6068221;23;20264;-79
2023/01/05 02:40:09;;;;;;;0.20;0.00;;;;;;;11.12;72.22;96960.81;6067992;23;20026;-80
2023/01/05 02:42:38;;;;;;;0.40;0.10;;;;;;;11.11;72.22;96956.59;6068358;23;20101;-80
2023/01/05 02:45:08;;;;;;;0.40;0.17;;;;;;;11.11;72.81;96956.59;6067961;23;20023;-80
2023/01/05 02:47:40;;;;;;;0.10;0.10;;;;;;;11.13;72.60;96949.41;6068010;23;20333;-80
2023/01/05 02:50:12;;;;;;;0.35;0.10;;;;;;;11.13;72.15;96957.25;6068047;23;20119;-80
2023/01/05 02:52:45;;;;;;;1.27;0.00;;;;;;;11.13;72.55;96961.66;6068527;23;20025;-80
2023/01/05 02:55:16;;;;;;;0.00;0.00;;;;;;;11.12;72.36;96946.97;6067907;23;20483;-80
2023/01/05 02:57:49;;;;;;;0.00;0.00;;;;;;;11.12;72.37;96953.00;6067110;23;20065;-79
2023/01/05 03:00:22;;;;;;;0.17;0.17;;;;;;;11.14;72.35;96958.03;6067698;23;20023;-80
2023/01/05 03:02:56;;;;;;;0.00;0.00;;;;;;;11.14;72.54;96940.56;6068450;23;20015;-81
2023/01/05 03:05:29;;;;;;;0.20;0.17;;;;;;;11.14;72.52;96927.53;6067270;23;20068;-80
2023/01/05 03:08:05;;;;;;;0.10;0.00;;;;;;;11.14;72.61;96935.34;6066755;23;20482;-80
2023/01/05 03:13:42;;;;;;;0.10;0.00;;;;;;;11.17;72.82;96936.00;6067219;23;20285;-80
2023/01/05 03:16:15;;;;;;;0.10;0.10;;;;;;;11.16;72.92;96944.81;6067986;23;20421;-80
2023/01/05 03:35:32;;;;;;;0.00;0.00;;;;;;;11.03;75.10;96953.25;5979741;24;20020;-80
2023/01/05 03:38:07;;;;;;;0.35;0.20;;;;;;;11.01;75.05;96950.81;5979413;24;20527;-80
2023/01/05 03:40:43;;;;;;;0.05;0.05;;;;;;;10.98;75.23;96945.94;6049616;23;20094;-80
2023/01/05 03:43:10;;;;;;;0.08;0.00;;;;;;;10.96;75.10;96941.91;6067640;23;20106;-79
2023/01/05 03:45:41;;;;;;;0.00;0.00;;;;;;;10.95;75.09;96935.03;6067926;23;20102;-79
2023/01/05 03:48:09;;;;;;;0.10;0.10;;;;;;;10.94;75.04;96931.63;6067535;23;20025;-78
2023/01/05 03:50:38;;;;;;;0.55;0.10;;;;;;;10.95;75.01;96941.06;6067592;23;20029;-80
2023/01/05 03:53:06;;;;;;;0.10;0.10;;;;;;;10.95;74.92;96954.09;6067105;23;20019;-80
2023/01/05 03:55:34;;;;;;;0.00;0.00;;;;;;;10.95;74.99;96948.88;6068158;23;20348;-80
2023/01/05 03:58:02;;;;;;;0.03;0.03;;;;;;;10.95;75.15;96941.06;6067675;23;20051;-80
2023/01/05 04:00:32;;;;;;;0.28;0.00;;;;;;;10.96;75.43;96942.69;6069343;23;20030;-80
2023/01/05 04:02:59;;;;;;;0.57;0.10;;;;;;;10.98;75.37;96935.50;6069361;23;20038;-79
2023/01/05 04:05:27;;;;;;;0.20;0.10;;;;;;;10.99;75.32;96939.72;6069894;23;20431;-80
2023/01/05 04:07:56;;;;;;;0.17;0.17;;;;;;;10.98;75.38;96947.75;6075158;23;20030;-80
2023/01/05 04:10:24;;;;;;;0.10;0.03;;;;;;;10.97;75.29;96933.88;6072851;23;20034;-79
2023/01/05 04:12:51;;;;;;;0.10;0.10;;;;;;;10.97;75.32;96933.06;6070507;23;20523;-80
2023/01/05 04:15:19;;;;;;;0.10;0.10;;;;;;;10.99;75.36;96931.09;6070544;23;20033;-80
2023/01/05 04:17:46;;;;;;;0.00;0.00;;;;;;;10.98;75.22;96940.72;6069617;23;20029;-80
2023/01/05 04:20:14;;;;;;;0.10;0.10;;;;;;;10.99;75.11;96925.88;6069446;23;20356;-80
2023/01/05 04:22:42;;;;;;;0.00;0.00;;;;;;;10.98;75.18;96924.25;6069752;23;20023;-80
2023/01/05 04:25:11;;;;;;;0.45;0.00;;;;;;;10.97;75.06;96923.44;6069469;23;20022;-80
2023/01/05 04:27:38;;;;;;;0.00;0.00;;;;;;;11.00;75.23;96927.47;6069774;23;20023;-80
2023/01/05 04:30:07;;;;;;;0.20;0.10;;;;;;;11.00;75.26;96927.47;6069319;23;20023;-80
2023/01/05 04:32:35;;;;;;;0.32;0.00;;;;;;;11.00;75.17;96923.09;6069434;23;20029;-80
2023/01/05 04:35:03;;;;;;;0.03;0.00;;;;;;;11.00;75.22;96928.31;6068877;23;20460;-80
2023/01/05 04:37:37;;;;;;;0.28;0.00;;;;;;;10.99;75.07;96942.34;6068874;23;20467;-80
2023/01/05 04:40:06;;;;;;;0.15;0.10;;;;;;;10.99;75.44;96931.09;6068688;23;20033;-80
2023/01/05 04:42:35;;;;;;;0.45;0.20;;;;;;;10.98;75.54;96939.91;6068922;23;20025;-80
2023/01/05 04:45:03;;;;;;;0.13;0.00;;;;;;;10.97;75.61;96935.66;6069158;23;20084;-80
2023/01/05 04:47:30;;;;;;;0.00;0.00;;;;;;;10.94;75.66;96936.84;6083997;23;20019;-80
2023/01/05 04:49:58;;;;;;;0.08;0.00;;;;;;;10.92;75.68;96941.41;6085415;23;20042;-80
2023/01/05 04:52:25;;;;;;;0.00;0.00;;;;;;;10.89;76.10;96928.75;6071309;23;20359;-79
2023/01/05 04:54:53;;;;;;;0.00;0.00;;;;;;;10.88;76.24;96932.31;6069584;23;20101;-80
2023/01/05 04:57:20;;;;;;;0.40;0.00;;;;;;;10.86;76.33;96924.66;6069073;23;20027;-80
2023/01/05 04:59:49;;;;;;;0.10;0.10;;;;;;;10.87;76.67;96928.09;6068814;23;20026;-79
2023/01/05 05:02:17;;;;;;;0.00;0.00;;;;;;;10.87;76.53;96917.66;6068278;23;20415;-78
2023/01/05 05:04:44;;;;;;;0.10;0.10;;;;;;;10.84;76.58;96928.44;6070456;23;20157;-80
2023/01/05 05:07:12;;;;;;;0.63;0.00;;;;;;;10.85;76.63;96925.66;6068969;23;20033;-80
2023/01/05 05:09:39;;;;;;;0.17;0.10;;;;;;;10.85;76.82;96915.22;6067937;23;20332;-79
2023/01/05 05:12:07;;;;;;;0.45;0.20;;;;;;;10.87;76.84;96915.84;6067669;23;20018;-79
2023/01/05 05:14:35;;;;;;;0.10;0.10;;;;;;;10.87;76.86;96926.28;6068683;23;20406;-80
2023/01/05 05:17:04;;;;;;;0.20;0.20;;;;;;;10.85;77.00;96924.84;6068465;23;20015;-80
2023/01/05 05:19:32;;;;;;;0.32;0.10;;;;;;;10.84;76.95;96918.78;6067894;23;20027;-79
2023/01/05 05:21:59;;;;;;;0.50;0.30;;;;;;;10.84;77.17;96929.22;6068198;23;20359;-80
2023/01/05 05:24:27;;;;;;;0.20;0.20;;;;;;;10.82;77.08;96936.44;6068335;23;20027;-80
2023/01/05 05:26:56;;;;;;;0.20;0.10;;;;;;;10.81;77.14;96941.84;6068088;23;20030;-80
2023/01/05 05:29:23;;;;;;;0.57;0.10;;;;;;;10.80;77.28;96946.25;6067933;23;20027;-80
2023/01/05 05:31:51;;;;;;;0.00;0.00;;;;;;;10.81;77.33;96945.25;6067781;23;20543;-80
2023/01/05 05:34:20;;;;;;;0.70;0.17;;;;;;;10.81;77.50;96949.66;6067925;23;20019;-80
2023/01/05 05:36:47;;;;;;;0.10;0.00;;;;;;;10.80;77.48;96955.84;6068275;23;20022;-80
2023/01/05 05:39:15;;;;;;;0.10;0.10;;;;;;;10.81;77.58;96960.09;6067465;23;20018;-80
2023/01/05 05:41:43;;;;;;;0.10;0.10;;;;;;;10.81;77.62;96954.88;6067652;23;20034;-79
2023/01/05 05:44:11;;;;;;;0.00;0.00;;;;;;;10.80;77.81;96961.91;6067644;23;20156;-80
2023/01/05 05:46:38;;;;;;;0.17;0.17;;;;;;;10.80;77.90;96958.47;6067669;23;20015;-79
2023/01/05 05:49:07;;;;;;;0.22;0.10;;;;;;;10.80;77.93;96974.13;6067871;23;20109;-80
2023/01/05 05:51:36;;;;;;;0.00;0.00;;;;;;;10.81;77.90;96970.53;6067647;23;20472;-80
2023/01/05 05:54:04;;;;;;;0.00;0.00;;;;;;;10.82;77.91;96982.59;6067873;23;20081;-80
2023/01/05 05:56:31;;;;;;;0.13;0.03;;;;;;;10.83;77.90;96992.06;6068048;23;20418;-80
2023/01/05 05:58:59;;;;;;;0.20;0.10;;;;;;;10.83;78.15;96999.88;6067367;23;20018;-80
2023/01/05 06:01:28;;;;;;;0.17;0.17;;;;;;;10.82;78.14;97008.69;6067824;23;20050;-80
2023/01/05 06:03:56;;;;;;;0.10;0.10;;;;;;;10.83;78.03;97005.09;6068086;23;20448;-78
2023/01/05 06:06:24;;;;;;;0.32;0.00;;;;;;;10.81;78.32;97017.53;6068552;23;20030;-80
2023/01/05 06:08:52;;;;;;;0.75;0.47;;;;;;;10.81;78.37;97025.34;6068129;23;20018;-80
2023/01/05 06:11:20;;;;;;;0.13;0.10;;;;;;;10.81;78.45;97023.53;6067732;23;20029;-80
2023/01/05 06:13:48;;;;;;;0.10;0.00;;;;;;;10.82;78.41;97024.34;6066616;23;20097;-80
2023/01/05 06:16:16;;;;;;;0.00;0.00;;;;;;;10.80;78.58;97024.53;6067353;23;20371;-79
2023/01/05 06:18:43;;;;;;;0.25;0.00;;;;;;;10.82;78.46;97032.19;6066850;23;20023;-80
2023/01/05 06:21:11;;;;;;;0.10;0.10;;;;;;;10.84;78.66;97038.03;6067284;23;20027;-79
2023/01/05 06:23:38;;;;;;;0.15;0.00;;;;;;;10.84;78.77;97044.06;6067840;23;20019;-80
2023/01/05 06:26:08;;;;;;;0.40;0.20;;;;;;;10.84;78.75;97043.25;6068969;23;20030;-80
2023/01/05 06:28:35;;;;;;;0.20;0.20;;;;;;;10.84;78.65;97044.06;6068242;23;20058;-79
2023/01/05 06:31:03;;;;;;;0.20;0.10;;;;;;;10.85;78.68;97039.69;6067668;23;20038;-80
2023/01/05 06:33:32;;;;;;;0.75;0.10;;;;;;;10.85;78.90;97050.91;6069916;23;20031;-79
2023/01/05 06:36:00;;;;;;;0.10;0.10;;;;;;;10.84;78.75;97044.06;6081928;23;20074;-81
2023/01/05 06:38:29;;;;;;;0.35;0.30;;;;;;;10.87;78.80;97058.59;6077031;23;20029;-80
2023/01/05 06:40:58;;;;;;;0.82;0.20;;;;;;;10.85;78.67;97065.78;6080494;23;20046;-80
2023/01/05 06:43:27;;;;;;;0.03;0.00;;;;;;;10.81;78.98;97062.69;6073114;23;20019;-80
2023/01/05 06:56:35;;;;;;;0.95;0.40;;;;;;;10.70;78.72;97079.53;6064303;23;20057;-82
2023/01/05 07:04:32;;;;;;;0.75;0.22;;;;;;;10.62;78.20;97089.19;6078085;23;20522;-80
2023/01/05 07:06:59;;;;;;;0.70;0.38;;;;;;;10.60;78.40;97091.16;6069254;23;20029;-79
2023/01/05 07:09:27;;;;;;;1.65;0.20;;;;;;;10.60;78.50;97099.78;6067212;23;20019;-80
2023/01/05 07:11:54;;;;;;;0.60;0.30;;;;;;;10.59;78.39;97098.19;6064336;23;20027;-80
2023/01/05 07:14:22;;;;;;;4.50;0.45;;;;;;;10.59;78.40;97107.81;6038244;23;20030;-80
2023/01/05 07:16:49;;;;;;;2.58;0.65;;;;;;;10.60;78.19;97110.22;6039207;23;20038;-80
2023/01/05 07:19:17;;;;;;;2.97;1.38;;;;;;;10.60;78.10;97115.44;6038986;23;20034;-79
2023/01/05 07:21:46;;;;;;;3.67;0.50;;;;;;;10.59;77.55;97113.84;6038188;23;20028;-79
2023/01/05 07:24:21;;;;;;;6.07;1.17;;;;;;;10.54;77.18;97123.97;6037599;23;20084;-79
2023/01/05 07:26:48;;;;;;;4.90;1.20;;;;;;;10.51;77.07;97132.13;6037624;23;20030;-80
2023/01/05 07:29:16;;;;;;;3.72;1.02;;;;;;;10.49;77.16;97134.06;6039720;23;20024;-80
2023/01/05 07:31:46;;;;;;;2.63;0.82;;;;;;;10.47;76.96;97131.66;6038512;23;20027;-78
2023/01/05 07:34:13;;;;;;;7.82;1.92;;;;;;;10.46;77.10;97129.19;6040287;23;20471;-79
2023/01/05 07:36:41;;;;;;;7.72;3.00;;;;;;;10.44;77.16;97136.38;6044457;23;20029;-80
2023/01/05 07:39:10;;;;;;;4.50;1.75;;;;;;;10.43;77.07;97139.97;6054795;23;20047;-79
2023/01/05 07:41:37;;;;;;;10.05;3.85;;;;;;;10.43;76.97;97139.97;6050240;23;20460;-80
2023/01/05 07:44:05;;;;;;;5.78;2.25;;;;;;;10.42;77.11;97140.94;6040613;23;20484;-79
2023/01/05 07:46:33;;;;;;;2.85;1.00;;;;;;;10.43;77.16;97155.59;6040635;23;20027;-79
2023/01/05 07:49:01;;;;;;;5.43;1.17;;;;;;;10.43;77.14;97155.59;6041594;23;20460;-80
2023/01/05 07:51:29;;;;;;;2.78;0.70;;;;;;;10.43;77.36;97155.59;6046493;23;20064;-81
2023/01/05 07:53:56;;;;;;;4.88;0.80;;;;;;;10.44;77.29;97157.25;6044475;23;20029;-80
2023/01/05 07:56:25;;;;;;;3.95;0.85;;;;;;;10.43;77.06;97160.81;6043072;23;20484;-79
2023/01/05 07:58:53;;;;;;;3.60;0.68;;;;;;;10.39;76.75;97149.94;6042424;23;20030;-80
2023/01/05 08:01:21;;;;;;;5.35;1.00;;;;;;;10.38;76.94;97168.34;6041504;23;20058;-79
2023/01/05 08:03:48;;;;;;;3.35;0.80;;;;;;;10.37;76.96;97166.72;6060328;23;20093;-79
2023/01/05 08:06:19;;;;;;;2.33;0.90;;;;;;;10.37;77.15;97171.94;6068586;23;20027;-79
2023/01/05 08:08:47;;;;;;;2.15;1.02;;;;;;;10.38;76.84;97178.78;6068073;23;20348;-77
2023/01/05 08:11:16;;;;;;;3.50;1.17;;;;;;;10.39;76.92;97183.03;6068570;23;20037;-77
2023/01/05 08:14:01;;;;;;;2.03;0.75;;;;;;;10.39;76.89;97188.25;6069747;23;20023;-79
2023/01/05 08:16:31;;;;;;;4.25;1.08;;;;;;;10.39;76.85;97185.63;6067571;23;20027;-79
2023/01/05 08:19:00;;;;;;;6.95;1.23;;;;;;;10.39;76.46;97188.25;6067891;23;20034;-79
2023/01/05 08:21:29;;;;;;;4.30;1.58;;;;;;;10.38;76.42;97194.41;6067403;23;20063;-79
2023/01/05 08:23:58;;;;;;;6.53;0.95;;;;;;;10.37;76.40;97182.38;6068377;23;20027;-79
2023/01/05 08:26:26;;;;;;;5.47;1.38;;;;;;;10.37;76.35;97193.59;6068212;23;20031;-79
2023/01/05 08:28:54;;;;;;;5.22;1.40;;;;;;;10.37;76.53;97191.00;6067630;23;20027;-78
2023/01/05 08:31:24;;;;;;;5.32;1.58;;;;;;;10.37;76.61;97198.03;6068143;23;20027;-80
2023/01/05 08:33:56;;;;;;;1.63;1.00;;;;;;;10.40;76.79;97197.69;6068007;23;20023;-79
2023/01/05 08:36:24;;;;;;;5.18;1.15;;;;;;;10.41;76.62;97191.50;6068046;23;20078;-79
2023/01/05 08:38:52;;;;;;;6.80;1.70;;;;;;;10.42;76.57;97206.16;6068108;23;20464;-79
2023/01/05 08:41:24;;;;;;;6.80;1.75;;;;;;;10.44;76.47;97198.97;6069335;23;20054;-80
2023/01/05 08:43:53;;;;;;;7.63;1.93;;;;;;;10.43;76.06;97198.16;6068738;23;20023;-80
2023/01/05 08:46:24;;;;;;;3.30;1.45;;;;;;;10.44;76.07;97204.19;6069202;23;20410;-79
2023/01/05 08:48:53;;;;;;;5.13;1.35;;;;;;;10.45;76.23;97201.44;6067746;23;20351;-80
2023/01/05 08:51:21;;;;;;;7.50;1.48;;;;;;;10.46;75.83;97208.25;6068060;23;20023;-79
2023/01/05 08:53:49;;;;;;;4.40;1.30;;;;;;;10.47;75.92;97206.47;6068533;23;20026;-79
2023/01/05 08:56:17;;;;;;;3.80;1.00;;;;;;;10.49;75.97;97207.94;6068281;23;20027;-79
2023/01/05 08:58:44;;;;;;;7.20;1.15;;;;;;;10.50;75.80;97225.22;6074991;23;20021;-78
2023/01/05 09:01:14;;;;;;;3.63;1.05;;;;;;;10.52;75.41;97232.88;6079613;23;20025;-79
2023/01/05 09:03:43;;;;;;;5.15;1.20;;;;;;;10.51;75.41;97229.44;6071367;23;20483;-79
2023/01/05 09:06:12;;;;;;;5.93;1.13;;;;;;;10.50;74.95;97224.41;6067400;23;20022;-79
2023/01/05 09:08:41;;;;;;;5.47;1.33;;;;;;;10.47;74.91;97225.56;6067578;23;20467;-79
2023/01/05 09:11:11;;;;;;;7.25;1.50;;;;;;;10.46;74.96;97229.13;6067779;23;20023;-79
2023/01/05 09:13:39;;;;;;;3.88;1.42;;;;;;;10.45;75.04;97230.13;6067498;23;20519;-79
2023/01/05 09:16:09;;;;;;;3.83;1.05;;;;;;;10.46;74.83;97233.53;6068256;23;20026;-79
2023/01/05 09:18:38;;;;;;;8.00;1.45;;;;;;;10.45;74.56;97231.88;6067626;23;20037;-79
2023/01/05 09:21:08;;;;;;;3.20;1.10;;;;;;;10.44;74.48;97236.31;6067312;23;20033;-79
2023/01/05 09:23:36;;;;;;;3.80;1.45;;;;;;;10.43;74.50;97237.28;6067885;23;20094;-80
2023/01/05 09:26:05;;;;;;;3.65;1.27;;;;;;;10.44;74.70;97245.91;6067732;23;20014;-78
2023/01/05 09:28:34;;;;;;;3.20;1.38;;;;;;;10.43;74.24;97245.13;6065738;23;20027;-79
2023/01/05 09:31:07;;;;;;;4.18;1.27;;;;;;;10.42;74.22;97253.09;6067446;23;20027;-79
2023/01/05 09:33:34;;;;;;;5.18;1.40;;;;;;;10.42;74.37;97263.53;6067417;23;20023;-79
2023/01/05 09:36:02;;;;;;;4.05;1.33;;;;;;;10.40;74.25;97260.25;6067392;23;20526;-80
2023/01/05 09:38:31;;;;;;;3.92;1.10;;;;;;;10.39;73.63;97261.25;6067000;23;20023;-79
2023/01/05 09:41:03;;;;;;;6.07;1.42;;;;;;;10.36;73.43;97258.97;6067649;23;20029;-78
2023/01/05 09:43:36;;;;;;;8.40;2.53;;;;;;;10.36;73.48;97269.41;6067158;23;20027;-78
2023/01/05 09:46:09;;;;;;;5.38;1.25;;;;;;;10.37;73.64;97274.44;6067526;23;20027;-78
2023/01/05 09:48:40;;;;;;;6.50;1.40;;;;;;;10.39;73.53;97279.53;6067303;23;20026;-79
2023/01/05 09:51:09;;;;;;;7.90;1.48;;;;;;;10.42;73.58;97287.00;6067622;23;20126;-80
2023/01/05 09:53:39;;;;;;;5.70;1.35;;;;;;;10.45;73.63;97294.50;6067567;23;20038;-80
2023/01/05 09:56:20;;;;;;;7.00;1.45;;;;;;;10.50;74.01;97289.63;6067040;23;20019;-79
2023/01/05 09:59:14;;;;;;;7.65;1.45;;;;;;;10.55;73.94;97287.31;6066977;23;20086;-79
2023/01/05 10:01:43;;;;;;;8.13;1.45;;;;;;;10.59;73.81;97290.44;6066835;23;20490;-79
2023/01/05 10:04:15;;;;;;;6.38;1.38;;;;;;;10.61;73.79;97293.69;6066482;23;20027;-79
2023/01/05 10:06:46;;;;;;;3.88;1.23;;;;;;;10.62;73.34;97293.50;6066371;23;20019;-79
2023/01/05 10:09:19;;;;;;;7.28;2.10;;;;;;;10.62;73.07;97290.88;6066858;23;20746;-80
2023/01/05 10:14:41;;;;;;;3.85;0.98;;;;;;;10.64;72.63;97288.94;6067132;23;20026;-80
2023/01/05 10:17:14;;;;;;;6.75;1.50;;;;;;;10.64;72.46;97283.72;6067473;23;20027;-77
2023/01/05 10:20:01;;;;;;;6.55;1.55;;;;;;;10.66;72.71;97281.75;6066368;23;20392;-79
2023/01/05 10:22:39;;;;;;;5.15;1.95;;;;;;;10.65;72.38;97279.34;6066888;23;20026;-79
2023/01/05 10:25:19;;;;;;;7.13;1.65;;;;;;;10.66;72.65;97280.94;6067026;23;20098;-80
2023/01/05 10:27:53;;;;;;;4.28;1.40;;;;;;;10.66;72.42;97281.75;6065987;23;20467;-81
2023/01/05 10:30:26;;;;;;;4.28;0.95;;;;;;;10.66;72.35;97279.16;6067144;23;20102;-80
2023/01/05 10:32:59;;;;;;;4.38;1.38;;;;;;;10.68;72.06;97274.56;6068808;23;20027;-80
2023/01/05 10:36:00;;;;;;;4.03;1.35;;;;;;;10.71;72.20;97279.47;6066206;23;20019;-80
2023/01/05 10:38:48;;;;;;;3.90;1.00;;;;;;;10.74;72.51;97283.56;6066691;23;20025;-80
2023/01/05 10:41:24;;;;;;;6.25;2.13;;;;;;;10.75;71.80;97276.53;6066562;23;20105;-80
2023/01/05 10:44:07;;;;;;;7.70;1.98;;;;;;;10.75;72.45;97276.53;6066453;23;20026;-79
2023/01/05 10:46:39;;;;;;;7.05;1.50;;;;;;;10.75;71.82;97276.53;6066639;23;20027;-80
2023/01/05 10:49:19;;;;;;;6.30;1.50;;;;;;;10.74;71.42;97274.91;6065480;23;20030;-80
2023/01/05 10:51:48;;;;;;;5.13;1.55;;;;;;;10.74;71.77;97278.34;6067343;23;20023;-80
2023/01/05 10:54:35;;;;;;;6.20;1.65;;;;;;;10.76;71.17;97272.94;6067208;23;20106;-80
2023/01/05 10:57:45;;;;;;;6.80;1.27;;;;;;;10.78;71.21;97276.19;6067049;23;20103;-80
2023/01/05 11:00:17;;;;;;;6.28;1.25;;;;;;;10.78;70.52;97263.13;6044944;23;20034;-80
2023/01/05 11:02:49;;;;;;;5.22;1.40;;;;;;;10.78;70.10;97269.19;6066691;23;20547;-80
2023/01/05 11:05:25;;;;;;;6.65;1.77;;;;;;;10.79;70.60;97270.00;6067488;23;20029;-81
2023/01/05 11:07:55;;;;;;;6.80;1.75;;;;;;;10.80;69.64;97274.22;6067162;23;20113;-79
2023/01/05 11:10:27;;;;;;;4.55;1.45;;;;;;;10.81;69.64;97268.03;6068665;23;20029;-79
2023/01/05 11:13:01;;;;;;;4.95;1.83;;;;;;;10.83;68.93;97269.50;6068588;23;20039;-79
2023/01/05 11:15:32;;;;;;;6.60;1.67;;;;;;;10.87;68.69;97256.94;6068746;23;20117;-79
2023/01/05 11:17:59;;;;;;;8.05;1.70;;;;;;;10.90;68.82;97256.59;6067368;23;20034;-80
2023/01/05 11:20:28;;;;;;;5.80;1.70;;;;;;;10.93;68.03;97261.47;6068831;23;20030;-80
2023/01/05 11:22:57;;;;;;;9.73;1.95;;;;;;;10.96;67.88;97261.16;6068533;23;20042;-78
2023/01/05 11:25:27;;;;;;;6.18;1.60;;;;;;;11.00;67.18;97261.63;6069356;23;20025;-79
2023/01/05 11:28:08;;;;;;;7.00;1.50;;;;;;;11.05;67.29;97275.81;6076876;23;20037;-78
2023/01/05 11:30:39;;;;;;;6.60;2.08;;;;;;;11.08;67.23;97270.22;6089982;23;20074;-80
2023/01/05 11:33:13;;;;;;;11.43;2.55;;;;;;;11.11;67.07;97276.94;6090074;23;20038;-80
2023/01/05 11:35:49;;;;;;;13.02;2.17;;;;;;;11.16;66.79;97266.00;6086690;23;20023;-79
2023/01/05 11:38:23;;;;;;;10.60;1.65;;;;;;;11.22;66.75;97268.75;6072999;23;20027;-80
2023/01/05 11:40:52;;;;;;;8.45;2.00;;;;;;;11.32;66.66;97266.72;6070565;23;20515;-79
2023/01/05 11:43:21;;;;;;;11.13;2.30;;;;;;;11.45;65.79;97265.38;6069792;23;20023;-81
2023/01/05 11:45:54;;;;;;;7.55;1.63;;;;;;;11.57;65.45;97252.72;6069342;23;20507;-82
2023/01/05 11:48:26;;;;;;;11.02;2.55;;;;;;;11.73;65.09;97255.25;6068941;23;20392;-83
2023/01/05 11:50:56;;;;;;;10.03;2.10;;;;;;;11.89;65.11;97263.00;6087221;23;20034;-83
2023/01/05 11:53:40;;;;;;;9.10;1.73;;;;;;;12.06;64.47;97263.72;6086990;23;20690;-82
2023/01/05 11:56:20;;;;;;;5.35;1.73;;;;;;;12.17;63.43;97259.88;6070128;23;20077;-81
2023/01/05 11:58:49;;;;;;;9.30;1.67;;;;;;;12.21;62.80;97266.41;6068520;23;20054;-81
2023/01/05 12:01:46;;;;;;;5.72;1.27;;;;;;;12.22;62.28;97264.59;6069032;23;20022;-81
2023/01/05 12:04:29;;;;;;;5.55;1.73;;;;;;;12.20;62.44;97263.94;6068635;23;20023;-80
2023/01/05 12:07:23;;;;;;;10.77;2.08;;;;;;;12.20;62.21;97262.16;6068664;23;20029;-81
2023/01/05 12:09:58;;;;;;;8.15;1.63;;;;;;;12.22;62.17;97267.19;6068331;23;20023;-82
2023/01/05 12:12:45;;;;;;;12.95;2.53;;;;;;;12.24;61.57;97271.25;6069142;23;20063;-81
2023/01/05 12:15:34;;;;;;;7.85;2.67;;;;;;;12.21;61.26;97253.31;6073383;23;20065;-81
2023/01/05 12:18:15;;;;;;;14.60;2.90;;;;;;;12.21;62.11;97257.75;6068347;23;20481;-80
2023/01/05 12:20:56;;;;;;;7.53;1.67;;;;;;;12.20;62.16;97262.16;6068462;23;20023;-81
2023/01/05 12:23:47;;;;;;;5.72;1.70;;;;;;;12.18;62.04;97260.69;6068836;23;20026;-82
2023/01/05 12:26:24;;;;;;;8.75;2.15;;;;;;;12.18;62.24;97261.53;6067822;23;20425;-81
2023/01/05 12:29:11;;;;;;;13.10;3.05;;;;;;;12.15;62.13;97269.72;6068520;23;20022;-80
2023/01/05 12:32:13;;;;;;;7.82;1.98;;;;;;;12.13;62.03;97262.06;6068609;23;20034;-81
2023/01/05 12:35:24;;;;;;;12.77;2.78;;;;;;;12.12;61.92;97257.78;6068111;23;20408;-82
2023/01/05 12:38:07;;;;;;;9.40;2.25;;;;;;;12.10;62.15;97272.03;6068107;23;20023;-81
2023/01/05 12:40:50;;;;;;;7.60;1.80;;;;;;;12.05;61.88;97271.75;6069251;23;20102;-81
2023/01/05 12:43:32;;;;;;;8.40;2.35;;;;;;;12.00;62.42;97272.25;6067940;23;20019;-81
2023/01/05 12:46:17;;;;;;;7.60;1.80;;;;;;;11.98;62.01;97276.84;6061732;23;20106;-80